Time;durP1;ratioP1;P1;durP2;ratioP2;P2;SDS_P1;SDS_P2;PMS_P1;PMS_P2;Temp;Humidity;BMP_temperature;BMP_pressure;BME280_temperature;BME280_humidity;BME280_pressure;Samples;Min_cycle;Max_cycle;Signal;HPM_P1;HPM_P2
2022/01/29 00:02:23;;;;;;;205.15;165.85;;;;;;;14.81;30.97;95171.63;5061448;28;20063;-67
2022/01/29 00:04:48;;;;;;;195.80;159.10;;;;;;;14.80;30.22;95175.50;5063894;28;20725;-67
2022/01/29 00:07:14;;;;;;;199.48;163.23;;;;;;;14.80;30.97;95172.78;5065762;28;20460;-68
2022/01/29 00:09:40;;;;;;;204.70;166.50;;;;;;;14.79;30.81;95159.75;5063426;28;20036;-67
2022/01/29 00:12:06;;;;;;;196.00;159.65;;;;;;;14.79;30.80;95163.19;5062328;28;20504;-66
2022/01/29 00:14:31;;;;;;;198.98;161.93;;;;;;;14.79;30.97;95159.75;5062884;28;20185;-67
2022/01/29 00:16:57;;;;;;;201.27;163.23;;;;;;;14.76;30.77;95164.00;5064068;28;20087;-67
2022/01/29 00:19:22;;;;;;;200.75;162.55;;;;;;;14.78;30.95;95158.22;5062093;28;20080;-67
2022/01/29 00:21:48;;;;;;;200.23;163.30;;;;;;;14.79;30.71;95140.88;5061099;28;20132;-67
2022/01/29 00:24:14;;;;;;;197.82;161.00;;;;;;;14.79;30.87;95136.25;5062580;28;20416;-67
2022/01/29 00:26:39;;;;;;;200.20;162.43;;;;;;;14.78;30.89;95129.34;5062057;28;20048;-66
2022/01/29 00:29:14;;;;;;;196.93;159.15;;;;;;;14.77;30.81;95130.53;5061662;28;20481;-67
2022/01/29 00:31:40;;;;;;;195.98;158.90;;;;;;;14.78;30.77;95117.81;5061421;28;20147;-67
2022/01/29 00:34:05;;;;;;;209.43;168.85;;;;;;;14.77;30.78;95113.59;5062509;28;20040;-67
2022/01/29 00:36:31;;;;;;;196.00;159.75;;;;;;;14.77;30.90;95116.28;5062307;28;20056;-67
2022/01/29 00:38:56;;;;;;;206.02;166.05;;;;;;;14.73;30.89;95105.56;5060373;28;20048;-67
2022/01/29 00:41:22;;;;;;;204.15;165.43;;;;;;;14.76;30.95;95107.44;5060555;28;20044;-66
2022/01/29 00:43:47;;;;;;;199.38;160.43;;;;;;;14.76;30.75;95106.69;5064428;28;20040;-67
2022/01/29 00:46:13;;;;;;;194.68;156.45;;;;;;;14.75;30.88;95108.63;5065930;28;20113;-67
2022/01/29 00:48:38;;;;;;;204.40;165.73;;;;;;;14.75;30.79;95097.84;5068091;28;20134;-67
2022/01/29 00:51:04;;;;;;;199.15;160.88;;;;;;;14.76;30.86;95095.91;5042885;28;20048;-67
2022/01/29 00:53:29;;;;;;;198.30;159.98;;;;;;;14.74;30.70;95096.31;5067511;28;20055;-67
2022/01/29 00:55:54;;;;;;;197.20;159.50;;;;;;;14.74;30.70;95082.09;5065571;28;20158;-67
2022/01/29 00:58:20;;;;;;;201.25;160.13;;;;;;;14.76;30.82;95066.28;5065082;28;20051;-67
2022/01/29 01:00:46;;;;;;;205.68;166.60;;;;;;;14.76;30.72;95071.69;5066533;28;20044;-67
2022/01/29 01:03:12;;;;;;;195.50;156.55;;;;;;;14.76;30.91;95066.28;5068767;28;20055;-67
2022/01/29 01:05:37;;;;;;;197.52;159.18;;;;;;;14.75;30.98;95076.31;5067376;28;20052;-67
2022/01/29 01:08:03;;;;;;;193.15;156.15;;;;;;;14.73;30.78;95072.50;5064777;28;21045;-67
2022/01/29 01:10:29;;;;;;;194.45;158.02;;;;;;;14.74;30.85;95065.94;5068284;28;20091;-67
2022/01/29 01:12:54;;;;;;;196.38;158.38;;;;;;;14.73;30.91;95062.50;5064394;28;20048;-67
2022/01/29 01:15:20;;;;;;;200.60;163.00;;;;;;;14.74;30.89;95049.78;5067191;28;20143;-67
2022/01/29 01:17:45;;;;;;;199.23;162.00;;;;;;;14.75;30.98;95043.22;5065822;28;20089;-67
2022/01/29 01:20:11;;;;;;;202.52;164.10;;;;;;;14.74;30.72;95047.84;5066306;28;20052;-67
2022/01/29 01:22:37;;;;;;;205.77;165.70;;;;;;;14.75;30.86;95038.63;5061869;28;20056;-67
2022/01/29 01:25:03;;;;;;;198.32;161.05;;;;;;;14.75;30.73;95037.84;5065629;28;20101;-66
2022/01/29 01:27:28;;;;;;;197.90;159.73;;;;;;;14.73;30.80;95030.19;5067850;28;20036;-67
2022/01/29 01:29:54;;;;;;;192.75;156.13;;;;;;;14.74;30.78;95020.94;5067370;28;20044;-66
2022/01/29 01:32:20;;;;;;;203.68;163.98;;;;;;;14.73;30.82;95005.19;5063805;28;20044;-67
2022/01/29 01:34:50;;;;;;;195.85;159.05;;;;;;;14.73;30.95;95005.94;5063800;28;20044;-67
2022/01/29 01:37:30;;;;;;;198.30;158.75;;;;;;;14.73;30.55;94992.47;5064585;28;20062;-67
2022/01/29 01:39:56;;;;;;;199.57;160.45;;;;;;;14.75;30.91;94989.38;5063774;28;20044;-68
2022/01/29 01:42:23;;;;;;;206.05;168.32;;;;;;;14.74;30.84;94982.47;5064938;28;20052;-67
2022/01/29 01:44:48;;;;;;;200.70;164.52;;;;;;;14.72;30.81;94972.13;5064211;28;20188;-67
2022/01/29 01:47:16;;;;;;;199.68;162.95;;;;;;;14.73;30.75;94970.19;5063838;28;20063;-66
2022/01/29 01:49:42;;;;;;;200.60;162.43;;;;;;;14.72;30.83;94955.97;5069279;28;20507;-67
2022/01/29 01:52:18;;;;;;;204.45;165.40;;;;;;;14.73;30.83;94943.25;5058787;28;20041;-66
2022/01/29 01:54:44;;;;;;;199.45;160.48;;;;;;;14.75;30.88;94932.84;5067430;28;22691;-67
2022/01/29 01:57:12;;;;;;;201.95;164.13;;;;;;;14.74;30.93;94937.47;5062942;28;20052;-67
2022/01/29 01:59:38;;;;;;;191.63;155.40;;;;;;;14.73;30.95;94916.34;5048856;28;20071;-66
2022/01/29 02:02:04;;;;;;;197.23;160.13;;;;;;;14.72;30.81;94915.56;5064434;28;20043;-66
2022/01/29 02:04:31;;;;;;;199.20;159.65;;;;;;;14.72;30.87;94915.56;5064228;28;20055;-66
2022/01/29 02:06:58;;;;;;;196.80;159.85;;;;;;;14.72;31.08;94923.66;5066009;28;20048;-67
2022/01/29 02:09:25;;;;;;;198.38;160.23;;;;;;;14.72;31.00;94914.81;5061984;28;20040;-67
2022/01/29 02:11:56;;;;;;;197.32;160.05;;;;;;;14.71;30.99;94908.66;5064987;28;20056;-66
2022/01/29 02:14:30;;;;;;;199.07;160.85;;;;;;;14.72;31.03;94906.72;5062020;28;20047;-66
2022/01/29 02:16:55;;;;;;;197.40;158.90;;;;;;;14.70;31.12;94898.31;5066677;28;20131;-67
2022/01/29 02:19:21;;;;;;;202.13;163.95;;;;;;;14.71;31.03;94899.81;5069055;28;20139;-67
2022/01/29 02:21:47;;;;;;;202.20;162.98;;;;;;;14.70;30.86;94904.44;5063626;28;20158;-66
2022/01/29 02:24:12;;;;;;;197.55;160.48;;;;;;;14.71;30.88;94910.59;5063062;28;20049;-67
2022/01/29 02:26:39;;;;;;;199.60;161.38;;;;;;;14.70;31.05;94907.13;5066073;28;20470;-66
2022/01/29 02:29:04;;;;;;;206.70;168.57;;;;;;;14.71;30.98;94905.22;5062458;28;20082;-67
2022/01/29 02:31:30;;;;;;;193.90;156.35;;;;;;;14.70;31.02;94906.38;5064349;28;20036;-66
2022/01/29 02:33:56;;;;;;;201.95;161.75;;;;;;;14.70;30.85;94906.38;5062151;28;20054;-67
2022/01/29 02:36:22;;;;;;;205.10;165.52;;;;;;;14.69;30.82;94904.84;5063518;28;20047;-67
2022/01/29 02:38:48;;;;;;;191.73;153.05;;;;;;;14.69;30.99;94902.16;5064449;28;20085;-66
2022/01/29 02:41:13;;;;;;;205.68;164.73;;;;;;;14.69;30.99;94892.16;5065924;28;20083;-67
2022/01/29 02:43:45;;;;;;;198.90;161.73;;;;;;;14.68;30.92;94890.63;5061961;28;20082;-67
2022/01/29 02:48:52;;;;;;;197.82;157.95;;;;;;;14.69;31.06;94884.09;5064562;28;20052;-67
2022/01/29 02:51:19;;;;;;;200.98;159.93;;;;;;;14.68;31.04;94882.56;5062945;28;20869;-66
2022/01/29 02:53:45;;;;;;;198.82;158.50;;;;;;;14.68;31.01;94879.88;5066511;28;20710;-66
2022/01/29 02:56:10;;;;;;;192.57;155.77;;;;;;;14.69;30.82;94880.63;5063118;28;20255;-66
2022/01/29 02:58:37;;;;;;;191.93;154.43;;;;;;;14.68;30.98;94873.72;5066825;28;20154;-68
2022/01/29 03:01:04;;;;;;;196.38;158.30;;;;;;;14.68;31.04;94874.47;5065806;28;20048;-66
2022/01/29 03:03:31;;;;;;;192.73;154.90;;;;;;;14.68;30.94;94869.09;5063816;28;20052;-67
2022/01/29 03:05:56;;;;;;;197.38;159.05;;;;;;;14.68;30.96;94866.41;5064754;28;20042;-66
2022/01/29 03:08:22;;;;;;;200.60;162.38;;;;;;;14.67;30.99;94864.88;5062245;28;20063;-67
2022/01/29 03:10:48;;;;;;;201.45;162.35;;;;;;;14.67;31.05;94856.81;5062687;28;20044;-66
2022/01/29 03:13:14;;;;;;;203.35;163.63;;;;;;;14.69;31.08;94864.47;5061878;28;20432;-67
2022/01/29 03:15:40;;;;;;;197.57;159.43;;;;;;;14.66;30.88;94865.28;5061939;28;20051;-66
2022/01/29 03:18:05;;;;;;;208.40;168.20;;;;;;;14.67;31.05;94867.56;5042746;28;20045;-66
2022/01/29 03:20:31;;;;;;;199.15;161.07;;;;;;;14.67;31.18;94859.50;5060808;28;20053;-66
2022/01/29 03:22:57;;;;;;;201.63;163.95;;;;;;;14.68;30.98;94868.34;5061989;28;20072;-67
2022/01/29 03:25:23;;;;;;;197.02;159.52;;;;;;;14.68;30.93;94865.66;5062710;28;20068;-66
2022/01/29 03:27:49;;;;;;;203.65;163.20;;;;;;;14.68;30.94;94866.41;5064945;28;20102;-67
2022/01/29 03:30:14;;;;;;;198.25;158.95;;;;;;;14.67;30.87;94869.50;5064376;28;20726;-67
2022/01/29 03:32:40;;;;;;;212.57;172.70;;;;;;;14.69;30.86;94867.16;5059894;28;20045;-66
2022/01/29 03:35:06;;;;;;;196.63;159.13;;;;;;;14.67;31.00;94862.19;5064261;28;20045;-67
2022/01/29 03:37:32;;;;;;;200.88;162.02;;;;;;;14.66;31.16;94857.97;5060649;28;20048;-66
2022/01/29 03:40:01;;;;;;;199.23;160.02;;;;;;;14.67;31.05;94859.50;5060182;28;20044;-66
2022/01/29 03:42:29;;;;;;;201.30;161.80;;;;;;;14.65;31.08;94847.63;5061938;28;20048;-66
2022/01/29 03:44:57;;;;;;;194.05;156.73;;;;;;;14.66;30.90;94849.16;5063806;28;20055;-66
2022/01/29 03:47:22;;;;;;;194.10;156.50;;;;;;;14.67;31.02;94859.50;5061687;28;20056;-66
2022/01/29 03:49:48;;;;;;;200.23;160.65;;;;;;;14.67;31.28;94854.13;5060923;28;20052;-66
2022/01/29 03:52:13;;;;;;;193.07;156.73;;;;;;;14.68;31.04;94871.78;5061452;28;20049;-66
2022/01/29 03:54:39;;;;;;;193.48;156.40;;;;;;;14.68;31.31;94868.34;5065197;28;20040;-67
2022/01/29 03:57:04;;;;;;;197.18;159.32;;;;;;;14.67;31.05;94872.97;5059312;28;20047;-66
2022/01/29 03:59:30;;;;;;;196.90;158.00;;;;;;;14.67;30.91;94870.28;5060986;28;20419;-66
2022/01/29 04:01:56;;;;;;;192.50;154.60;;;;;;;14.67;30.96;94859.50;5063021;28;20040;-66
2022/01/29 04:04:21;;;;;;;201.90;162.70;;;;;;;14.66;31.00;94866.06;5057583;28;20120;-67
2022/01/29 04:06:49;;;;;;;194.43;156.43;;;;;;;14.66;30.85;94863.38;5059402;28;20068;-65
2022/01/29 04:09:14;;;;;;;196.23;157.05;;;;;;;14.65;31.00;94861.84;5058091;28;20557;-68
2022/01/29 04:11:39;;;;;;;198.20;162.60;;;;;;;14.66;31.03;94862.59;5063888;28;20055;-67
2022/01/29 04:14:14;;;;;;;195.27;158.18;;;;;;;14.67;30.81;94856.81;5058002;28;20048;-68
2022/01/29 04:16:40;;;;;;;202.48;164.13;;;;;;;14.66;30.78;94857.97;5063561;28;20047;-68
2022/01/29 04:19:06;;;;;;;191.88;154.80;;;;;;;14.66;30.90;94844.53;5056478;28;20072;-67
2022/01/29 04:21:32;;;;;;;196.98;158.55;;;;;;;14.66;30.81;94851.84;5070729;28;20040;-66
2022/01/29 04:23:58;;;;;;;195.02;157.05;;;;;;;14.65;30.80;94843.00;5065217;28;20098;-66
2022/01/29 04:26:23;;;;;;;193.30;156.93;;;;;;;14.65;30.83;94845.69;5068282;28;20132;-66
2022/01/29 04:28:49;;;;;;;194.20;156.18;;;;;;;14.66;30.95;94841.81;5063276;28;20036;-67
2022/01/29 04:31:18;;;;;;;193.38;155.70;;;;;;;14.67;30.98;94842.59;5071071;28;20063;-67
2022/01/29 04:33:45;;;;;;;195.67;158.57;;;;;;;14.66;30.92;94838.38;5068620;28;20080;-66
2022/01/29 04:36:11;;;;;;;197.27;158.05;;;;;;;14.64;30.96;94829.94;5067094;28;20460;-66
2022/01/29 04:38:36;;;;;;;198.98;158.65;;;;;;;14.65;30.86;94821.47;5064934;28;20048;-65
2022/01/29 04:41:04;;;;;;;197.32;158.75;;;;;;;14.66;30.96;94820.28;5061497;28;20449;-64
2022/01/29 04:43:34;;;;;;;195.25;156.10;;;;;;;14.66;31.06;94828.38;5064995;28;20047;-65
2022/01/29 04:46:00;;;;;;;193.90;155.75;;;;;;;14.67;31.08;94829.13;5068383;28;20097;-65
2022/01/29 04:48:26;;;;;;;194.00;157.00;;;;;;;14.65;30.88;94834.16;5070441;28;20074;-65
2022/01/29 04:50:51;;;;;;;206.45;165.70;;;;;;;14.65;31.04;94821.47;5057988;28;20044;-65
2022/01/29 04:53:17;;;;;;;195.77;157.35;;;;;;;14.65;31.01;94824.16;5070333;28;20040;-65
2022/01/29 04:55:42;;;;;;;199.93;159.80;;;;;;;14.64;30.82;94811.88;5068860;28;20491;-65
2022/01/29 04:58:08;;;;;;;191.57;153.43;;;;;;;14.65;30.95;94816.06;5072340;28;20059;-65
2022/01/29 05:00:35;;;;;;;195.27;157.30;;;;;;;14.65;31.07;94818.78;5068450;28;20042;-65
2022/01/29 05:03:10;;;;;;;198.23;157.93;;;;;;;14.66;30.79;94820.28;5067308;28;20044;-65
2022/01/29 05:05:36;;;;;;;194.35;155.68;;;;;;;14.66;30.85;94816.84;5068853;28;20048;-65
2022/01/29 05:08:02;;;;;;;198.20;157.85;;;;;;;14.65;31.13;94813.38;5069227;28;20048;-65
2022/01/29 05:10:29;;;;;;;198.05;159.25;;;;;;;14.65;31.02;94815.31;5070140;28;20088;-65
2022/01/29 05:13:13;;;;;;;192.88;155.10;;;;;;;14.67;31.05;94815.66;5066274;28;20096;-65
2022/01/29 05:29:11;;;;;;;193.02;153.65;;;;;;;14.68;30.68;94820.63;5065707;28;20052;-65
2022/01/29 05:31:38;;;;;;;198.13;159.07;;;;;;;14.68;30.69;94822.56;5064279;28;20040;-65
2022/01/29 05:34:03;;;;;;;191.02;153.65;;;;;;;14.67;30.83;94821.81;5068740;28;20059;-65
2022/01/29 05:36:29;;;;;;;190.85;154.65;;;;;;;14.68;30.65;94828.72;5067067;28;20044;-65
2022/01/29 05:38:55;;;;;;;197.48;158.63;;;;;;;14.69;30.70;94824.84;5064526;28;20036;-65
2022/01/29 05:41:21;;;;;;;203.63;163.27;;;;;;;14.69;30.67;94816.78;5062615;28;20063;-65
2022/01/29 05:43:47;;;;;;;205.20;165.70;;;;;;;14.68;30.81;94817.94;5045112;28;20361;-65
2022/01/29 05:46:15;;;;;;;192.55;155.35;;;;;;;14.71;30.74;94819.06;5067165;28;20057;-65
2022/01/29 05:48:41;;;;;;;197.75;158.57;;;;;;;14.72;30.66;94813.25;5062612;28;20053;-65
2022/01/29 05:51:09;;;;;;;196.65;159.38;;;;;;;14.74;30.53;94815.53;5060530;28;20050;-65
2022/01/29 05:53:35;;;;;;;196.02;157.88;;;;;;;14.73;30.49;94811.31;5063259;28;20109;-65
2022/01/29 05:56:01;;;;;;;195.02;157.38;;;;;;;14.74;30.67;94808.22;5067185;28;20501;-68
2022/01/29 05:58:27;;;;;;;205.05;166.02;;;;;;;14.75;30.58;94804.34;5063333;28;20043;-67
2022/01/29 06:00:52;;;;;;;208.55;167.65;;;;;;;14.75;30.58;94787.44;5066100;28;20055;-67
2022/01/29 06:03:18;;;;;;;206.13;165.95;;;;;;;14.76;30.54;94786.28;5063390;28;20246;-67
2022/01/29 06:05:44;;;;;;;200.45;162.80;;;;;;;14.76;30.54;94784.34;5065779;28;20090;-67
2022/01/29 06:08:10;;;;;;;208.57;168.40;;;;;;;14.77;30.55;94783.16;5064390;28;20067;-67
2022/01/29 06:10:35;;;;;;;198.88;160.27;;;;;;;14.79;30.62;94777.38;5064948;28;20056;-66
2022/01/29 06:13:13;;;;;;;199.73;161.43;;;;;;;14.77;30.45;94775.09;5059070;28;20143;-69
2022/01/29 06:15:43;;;;;;;198.95;159.68;;;;;;;14.81;30.53;94783.09;5061231;28;20130;-69
2022/01/29 06:18:13;;;;;;;197.68;160.05;;;;;;;14.80;30.48;94771.56;5066207;28;20109;-68
2022/01/29 06:20:40;;;;;;;197.38;159.93;;;;;;;14.81;30.57;94785.78;5061948;28;20055;-70
2022/01/29 06:23:06;;;;;;;212.75;171.32;;;;;;;14.82;30.56;94784.63;5063060;28;20816;-67
2022/01/29 06:25:32;;;;;;;200.95;161.65;;;;;;;14.83;30.48;94789.59;5060988;28;20051;-67
2022/01/29 06:27:57;;;;;;;200.70;162.30;;;;;;;14.82;30.67;94795.38;5065951;28;20040;-70
2022/01/29 06:30:24;;;;;;;200.07;160.48;;;;;;;14.83;30.53;94802.28;5065294;28;20049;-70
2022/01/29 06:32:49;;;;;;;195.07;157.50;;;;;;;14.83;30.30;94799.59;5047817;28;20181;-69
2022/01/29 06:35:15;;;;;;;194.85;157.82;;;;;;;14.82;30.42;94793.47;5044778;28;20795;-66
2022/01/29 06:37:41;;;;;;;212.65;173.48;;;;;;;14.83;30.36;94805.00;5062349;28;20127;-67
2022/01/29 06:40:07;;;;;;;197.60;158.90;;;;;;;14.84;30.35;94801.13;5065782;28;20052;-66
2022/01/29 06:42:33;;;;;;;208.73;165.90;;;;;;;14.85;30.53;94796.50;5062354;28;20798;-67
2022/01/29 06:44:59;;;;;;;207.30;166.98;;;;;;;14.83;30.40;94803.06;5061012;28;20109;-68
2022/01/29 06:47:24;;;;;;;197.27;158.63;;;;;;;14.86;30.39;94806.09;5061864;28;20056;-69
2022/01/29 06:49:50;;;;;;;197.10;160.20;;;;;;;14.85;30.19;94799.19;5058504;28;20559;-70
2022/01/29 06:52:16;;;;;;;215.00;173.65;;;;;;;14.86;30.28;94806.09;5046479;28;20056;-67
2022/01/29 06:54:41;;;;;;;199.18;161.18;;;;;;;14.85;30.26;94804.56;5063575;28;20044;-69
2022/01/29 06:57:08;;;;;;;202.55;165.98;;;;;;;14.86;30.32;94806.84;5061837;28;20055;-70
2022/01/29 06:59:33;;;;;;;194.77;155.70;;;;;;;14.86;29.80;94812.25;5061955;28;20782;-71
2022/01/29 07:01:59;;;;;;;201.93;163.85;;;;;;;14.86;30.26;94811.47;5043360;28;20052;-70
2022/01/29 07:04:24;;;;;;;198.82;160.68;;;;;;;14.86;30.35;94811.47;5060732;28;20518;-69
2022/01/29 07:06:50;;;;;;;200.13;160.85;;;;;;;14.87;30.25;94807.63;5056329;28;20064;-68
2022/01/29 07:09:15;;;;;;;205.40;166.48;;;;;;;14.86;30.58;94817.63;5062156;28;20452;-65
2022/01/29 07:11:43;;;;;;;207.80;166.02;;;;;;;14.86;30.22;94809.56;5061278;28;20330;-65
2022/01/29 07:14:15;;;;;;;205.73;167.75;;;;;;;14.87;30.25;94804.91;5044126;28;20048;-65
2022/01/29 07:16:40;;;;;;;208.85;166.18;;;;;;;14.87;30.25;94799.53;5063716;28;20040;-65
2022/01/29 07:19:06;;;;;;;194.43;157.25;;;;;;;14.87;30.21;94808.38;5060442;28;20044;-65
2022/01/29 07:21:32;;;;;;;204.57;166.38;;;;;;;14.87;30.35;94796.84;5066776;28;20047;-65
2022/01/29 07:23:57;;;;;;;203.98;165.25;;;;;;;14.88;30.24;94796.44;5063786;28;20094;-65
2022/01/29 07:26:22;;;;;;;205.48;167.35;;;;;;;14.87;30.25;94786.06;5064800;28;20048;-64
2022/01/29 07:28:48;;;;;;;196.45;159.80;;;;;;;14.88;30.25;94784.91;5062305;28;20056;-65
2022/01/29 07:31:14;;;;;;;201.57;164.00;;;;;;;14.88;30.48;94785.66;5065468;28;20060;-66
2022/01/29 07:33:39;;;;;;;218.18;174.48;;;;;;;14.87;30.24;94789.53;5060686;28;20055;-65
2022/01/29 07:36:05;;;;;;;201.35;162.98;;;;;;;14.87;30.50;94778.75;5060918;28;20891;-65
2022/01/29 07:38:31;;;;;;;198.23;161.13;;;;;;;14.86;30.41;94771.84;5059338;28;20040;-65
2022/01/29 07:40:56;;;;;;;204.13;165.20;;;;;;;14.88;30.33;94768.75;5058530;28;20130;-65
2022/01/29 07:43:22;;;;;;;202.23;164.00;;;;;;;14.87;30.18;94765.28;5061328;28;20052;-65
2022/01/29 07:45:48;;;;;;;205.18;164.20;;;;;;;14.88;30.26;94768.75;5062926;28;20055;-65
2022/01/29 07:48:13;;;;;;;210.13;168.98;;;;;;;14.88;30.26;94766.81;5062640;28;20139;-65
2022/01/29 07:50:39;;;;;;;197.48;158.43;;;;;;;14.89;30.25;94768.31;5064101;28;20535;-67
2022/01/29 07:53:04;;;;;;;201.75;162.13;;;;;;;14.88;30.21;94774.13;5064945;28;20054;-65
2022/01/29 07:55:30;;;;;;;200.65;163.15;;;;;;;14.87;30.31;94767.97;5066060;28;20458;-65
2022/01/29 07:58:01;;;;;;;197.63;159.30;;;;;;;14.89;30.25;94772.94;5039521;28;20055;-67
2022/01/29 08:00:27;;;;;;;201.65;164.20;;;;;;;14.88;30.11;94774.13;5042866;28;20044;-68
2022/01/29 08:02:53;;;;;;;199.77;160.38;;;;;;;14.86;30.18;94781.84;5061981;28;20415;-70
2022/01/29 08:05:18;;;;;;;204.98;166.93;;;;;;;14.84;30.21;94782.28;5062635;28;20064;-68
2022/01/29 08:07:44;;;;;;;194.13;157.15;;;;;;;14.83;30.20;94789.59;5062829;28;20507;-70
2022/01/29 08:10:09;;;;;;;198.25;159.52;;;;;;;14.82;29.96;94798.09;5061337;28;20519;-70
2022/01/29 08:12:35;;;;;;;210.73;169.20;;;;;;;14.83;29.93;94789.59;5060796;28;20037;-69
2022/01/29 08:15:02;;;;;;;192.75;154.93;;;;;;;14.81;30.10;94785.78;5059114;28;20055;-70
2022/01/29 08:17:28;;;;;;;201.65;163.23;;;;;;;14.82;29.89;94788.06;5061266;28;20197;-69
2022/01/29 08:19:54;;;;;;;195.52;158.50;;;;;;;14.83;30.12;94781.50;5043434;28;20116;-68
2022/01/29 08:22:19;;;;;;;194.43;155.45;;;;;;;14.83;30.06;94783.44;5063294;28;20048;-68
2022/01/29 08:24:45;;;;;;;201.48;162.35;;;;;;;14.82;30.12;94776.53;5058525;28;20036;-68
2022/01/29 08:27:11;;;;;;;197.80;160.27;;;;;;;14.82;30.00;94781.94;5062652;28;20135;-69
2022/01/29 08:29:37;;;;;;;200.65;160.43;;;;;;;14.80;30.07;94787.72;5060422;28;20781;-68
2022/01/29 08:32:03;;;;;;;198.52;159.20;;;;;;;14.80;29.73;94782.34;5064381;28;20051;-68
2022/01/29 08:34:29;;;;;;;192.73;153.40;;;;;;;14.80;30.00;94784.28;5060525;28;20048;-68
2022/01/29 08:36:58;;;;;;;202.40;163.82;;;;;;;14.77;30.02;94768.94;5059925;28;20056;-68
2022/01/29 08:39:24;;;;;;;206.73;168.45;;;;;;;14.80;30.00;94758.09;5040674;28;20411;-69
2022/01/29 08:41:50;;;;;;;199.82;157.73;;;;;;;14.80;29.94;94751.97;5055419;28;20109;-68
2022/01/29 08:44:16;;;;;;;200.45;162.82;;;;;;;14.84;29.91;94755.34;5059550;28;20040;-64
2022/01/29 08:46:42;;;;;;;199.85;162.38;;;;;;;14.85;30.02;94737.25;5060713;28;20126;-66
2022/01/29 08:49:07;;;;;;;204.55;162.32;;;;;;;14.83;30.01;94735.75;5062017;28;20420;-67
2022/01/29 08:51:33;;;;;;;207.93;167.63;;;;;;;14.86;29.87;94738.78;5026990;28;20747;-67
2022/01/29 08:53:59;;;;;;;200.55;162.68;;;;;;;14.86;30.00;94734.16;5060643;28;20122;-67
2022/01/29 08:56:24;;;;;;;204.40;164.75;;;;;;;14.85;29.94;94727.25;5057506;28;20140;-66
2022/01/29 08:58:50;;;;;;;213.27;170.05;;;;;;;14.86;30.01;94733.38;5023430;28;20052;-65
2022/01/29 09:01:16;;;;;;;220.27;177.20;;;;;;;14.87;29.77;94737.59;5050566;28;20357;-65
2022/01/29 09:03:41;;;;;;;218.88;174.45;;;;;;;14.87;30.19;94735.66;5050757;28;20175;-65
2022/01/29 09:06:07;;;;;;;216.88;174.85;;;;;;;14.87;30.21;94730.28;5053948;28;20070;-65
2022/01/29 09:08:33;;;;;;;212.35;171.43;;;;;;;14.87;30.01;94734.91;5052589;28;20052;-67
2022/01/29 09:10:59;;;;;;;223.32;181.52;;;;;;;14.87;30.25;94724.91;5055469;28;20098;-66
2022/01/29 09:13:26;;;;;;;219.80;177.10;;;;;;;14.89;29.96;94719.09;5048826;28;20587;-66
2022/01/29 09:15:52;;;;;;;209.68;168.88;;;;;;;14.87;30.15;94724.13;5053131;28;20214;-66
2022/01/29 09:18:18;;;;;;;221.98;179.38;;;;;;;14.81;29.66;94727.31;5056329;28;20040;-67
2022/01/29 09:20:44;;;;;;;207.27;166.90;;;;;;;14.71;29.42;94733.66;5054915;28;20067;-66
2022/01/29 09:23:09;;;;;;;225.00;182.10;;;;;;;14.64;29.55;94741.88;5035931;28;20550;-67
2022/01/29 09:25:39;;;;;;;220.23;176.10;;;;;;;14.61;29.49;94737.31;5052512;28;20116;-67
2022/01/29 09:28:09;;;;;;;219.63;175.85;;;;;;;14.62;29.54;94746.16;5052621;28;20519;-68
2022/01/29 09:30:35;;;;;;;215.63;170.30;;;;;;;14.69;29.39;94757.56;5053274;28;20303;-67
2022/01/29 09:33:01;;;;;;;229.73;182.00;;;;;;;14.74;29.42;94748.22;5051240;28;20059;-68
2022/01/29 09:35:27;;;;;;;218.95;174.63;;;;;;;14.78;29.52;94743.53;5053886;28;20056;-67
2022/01/29 09:37:53;;;;;;;224.70;180.60;;;;;;;14.81;29.55;94746.16;5052230;28;20040;-67
2022/01/29 09:40:20;;;;;;;232.07;187.73;;;;;;;14.81;29.36;94751.53;5040183;28;20048;-67
2022/01/29 09:42:47;;;;;;;220.02;177.57;;;;;;;14.79;29.70;94748.50;5051954;28;20055;-67
2022/01/29 09:45:14;;;;;;;220.70;177.70;;;;;;;14.79;29.79;94753.91;5054422;28;20109;-67
2022/01/29 09:47:45;;;;;;;223.93;181.35;;;;;;;14.79;29.48;94753.13;5054143;28;20485;-66
2022/01/29 09:50:12;;;;;;;223.20;177.40;;;;;;;14.78;29.49;94752.38;5048033;28;20048;-67
2022/01/29 09:52:38;;;;;;;229.65;184.18;;;;;;;14.77;29.50;94753.56;5051900;28;20064;-67
2022/01/29 09:55:05;;;;;;;219.30;174.68;;;;;;;14.76;29.54;94759.34;5052584;28;20056;-67
2022/01/29 09:57:30;;;;;;;223.10;178.82;;;;;;;14.76;29.65;94757.41;5043480;28;20040;-66
2022/01/29 09:59:56;;;;;;;222.68;178.35;;;;;;;14.76;29.69;94751.28;5054169;28;20428;-67
2022/01/29 10:02:23;;;;;;;221.43;177.18;;;;;;;14.76;29.52;94751.28;5053266;28;20033;-66
2022/01/29 10:04:54;;;;;;;204.57;164.48;;;;;;;14.75;29.62;94758.59;5051111;28;21754;-66
2022/01/29 10:07:24;;;;;;;223.88;179.23;;;;;;;14.74;29.60;94751.69;5050897;28;20087;-67
2022/01/29 10:09:50;;;;;;;219.48;175.63;;;;;;;14.76;29.54;94745.88;5048128;28;20133;-66
2022/01/29 10:12:26;;;;;;;228.35;184.77;;;;;;;14.75;29.62;94742.44;5050444;28;20113;-66
2022/01/29 10:15:05;;;;;;;219.88;177.32;;;;;;;14.76;29.43;94743.19;5049278;28;20098;-67
2022/01/29 10:17:37;;;;;;;230.88;186.88;;;;;;;14.77;29.55;94744.72;5048635;28;20170;-66
2022/01/29 10:20:22;;;;;;;222.00;179.30;;;;;;;14.78;29.55;94751.63;5051916;28;20047;-66
2022/01/29 10:22:52;;;;;;;225.05;180.48;;;;;;;14.76;29.36;94738.56;5051521;28;20259;-66
2022/01/29 10:25:23;;;;;;;215.43;173.65;;;;;;;14.76;29.41;94743.19;5051524;28;20120;-67
2022/01/29 10:28:08;;;;;;;210.13;168.73;;;;;;;14.76;29.55;94743.94;5053612;28;20052;-67
2022/01/29 10:30:35;;;;;;;222.10;178.45;;;;;;;14.77;29.54;94748.16;5052063;28;20505;-66
2022/01/29 10:33:20;;;;;;;207.25;163.65;;;;;;;14.74;29.23;94748.22;5052665;28;20062;-66
2022/01/29 10:35:49;;;;;;;219.18;173.50;;;;;;;14.73;29.37;94750.16;5052402;28;20515;-66
2022/01/29 10:38:41;;;;;;;223.73;179.05;;;;;;;14.72;28.98;94750.56;5050601;28;20149;-67
2022/01/29 10:41:11;;;;;;;220.40;175.65;;;;;;;14.70;29.13;94742.91;5038005;28;20047;-66
2022/01/29 10:43:53;;;;;;;225.77;181.95;;;;;;;14.75;29.08;94736.28;5052952;28;20070;-67
2022/01/29 10:46:27;;;;;;;225.05;181.48;;;;;;;14.77;29.21;94731.25;5052796;28;20056;-66
2022/01/29 10:48:53;;;;;;;218.73;176.48;;;;;;;14.78;29.15;94730.84;5051250;28;20048;-66
2022/01/29 10:51:18;;;;;;;224.55;180.48;;;;;;;14.79;29.34;94726.97;5051196;28;20062;-67
2022/01/29 10:53:44;;;;;;;227.80;182.73;;;;;;;14.79;29.14;94721.59;5052989;28;20116;-67
2022/01/29 10:56:10;;;;;;;223.80;181.60;;;;;;;14.81;29.26;94721.94;5052824;28;20457;-67
2022/01/29 10:58:42;;;;;;;224.20;181.00;;;;;;;14.81;29.00;94708.47;5050661;28;20059;-66
2022/01/29 11:01:14;;;;;;;225.10;181.25;;;;;;;14.81;29.19;94702.31;5054494;28;20059;-67
2022/01/29 11:03:40;;;;;;;212.50;170.88;;;;;;;14.80;29.17;94700.81;5052282;28;21182;-67
2022/01/29 11:06:10;;;;;;;236.15;188.15;;;;;;;14.78;28.94;94703.16;5054263;28;20040;-66
2022/01/29 11:08:40;;;;;;;221.93;179.00;;;;;;;14.74;28.84;94691.69;5049908;28;20062;-67
2022/01/29 11:11:08;;;;;;;220.55;175.27;;;;;;;14.79;28.82;94683.13;5054080;28;20101;-67
2022/01/29 11:13:35;;;;;;;220.35;174.98;;;;;;;14.80;28.90;94680.03;5051798;28;20044;-66
2022/01/29 11:16:02;;;;;;;222.40;177.68;;;;;;;14.80;28.58;94677.31;5052098;28;20135;-67
2022/01/29 11:18:28;;;;;;;220.85;176.70;;;;;;;14.82;28.73;94679.59;5034727;28;20058;-67